Time;durP1;ratioP1;P1;durP2;ratioP2;P2;SDS_P1;SDS_P2;PMS_P1;PMS_P2;Temp;Humidity;BMP_temperature;BMP_pressure;BME280_temperature;BME280_humidity;BME280_pressure;Samples;Min_cycle;Max_cycle;Signal;HPM_P1;HPM_P2
2021/03/23 00:01:27;;;;;;;7.70;5.53;;;7.10;1.00;;;;;;4984100;28;20248;-76
2021/03/23 00:03:53;;;;;;;9.23;5.43;;;7.10;1.00;;;;;;4976093;28;20251;-77
2021/03/23 00:06:22;;;;;;;7.78;5.65;;;7.10;1.00;;;;;;4968611;28;20287;-79
2021/03/23 00:08:50;;;;;;;8.43;6.15;;;7.00;1.00;;;;;;4964085;28;20229;-78
2021/03/23 00:11:20;;;;;;;10.00;5.75;;;7.00;1.00;;;;;;4965041;28;20248;-79
2021/03/23 00:13:48;;;;;;;11.85;6.05;;;7.00;1.00;;;;;;4963624;28;20220;-80
2021/03/23 00:16:16;;;;;;;9.57;5.80;;;7.00;1.00;;;;;;4967150;28;20232;-78
2021/03/23 00:18:43;;;;;;;8.50;5.60;;;7.00;1.00;;;;;;4979442;28;20239;-77
2021/03/23 00:21:10;;;;;;;7.55;4.88;;;7.00;1.00;;;;;;4966070;28;20331;-79
2021/03/23 00:23:37;;;;;;;7.60;5.32;;;7.00;1.00;;;;;;4965978;28;23632;-79
2021/03/23 00:26:04;;;;;;;6.90;5.68;;;7.00;1.00;;;;;;4962501;28;21162;-79
2021/03/23 00:28:30;;;;;;;8.65;5.10;;;7.00;1.00;;;;;;4965880;28;20229;-79
2021/03/23 00:30:57;;;;;;;8.45;6.05;;;7.00;1.00;;;;;;4967919;28;20243;-78
2021/03/23 00:33:24;;;;;;;9.55;5.55;;;6.90;1.00;;;;;;4965254;28;20475;-78
2021/03/23 00:35:54;;;;;;;7.13;4.88;;;6.90;1.00;;;;;;4963909;28;20233;-78
2021/03/23 00:38:22;;;;;;;9.38;6.07;;;6.80;1.00;;;;;;4967814;28;21473;-78
2021/03/23 00:40:49;;;;;;;8.27;5.68;;;6.70;1.00;;;;;;4966370;28;21144;-79
2021/03/23 00:43:16;;;;;;;7.30;5.40;;;6.60;1.00;;;;;;4978943;28;20575;-77
2021/03/23 00:45:43;;;;;;;7.70;5.30;;;6.60;1.00;;;;;;4980165;28;20232;-77
2021/03/23 00:48:13;;;;;;;8.27;5.75;;;6.60;1.00;;;;;;4983048;28;20284;-77
2021/03/23 00:50:41;;;;;;;10.35;5.93;;;6.50;1.00;;;;;;4974844;28;20851;-78
2021/03/23 00:53:07;;;;;;;16.67;6.47;;;6.50;1.00;;;;;;4966633;28;20774;-78
2021/03/23 00:55:34;;;;;;;11.40;6.65;;;6.50;1.00;;;;;;4970160;28;20308;-78
2021/03/23 00:58:00;;;;;;;10.50;6.47;;;6.50;1.00;;;;;;4961607;28;21479;-76
2021/03/23 01:00:27;;;;;;;9.80;6.50;;;6.50;1.00;;;;;;4971014;28;20239;-77
2021/03/23 01:02:54;;;;;;;9.10;6.00;;;6.50;1.00;;;;;;4973310;28;20319;-78
2021/03/23 01:05:26;;;;;;;9.68;7.00;;;6.50;1.00;;;;;;4974875;28;20223;-78
2021/03/23 01:07:52;;;;;;;9.13;5.90;;;6.50;1.00;;;;;;4975270;28;20228;-79
2021/03/23 01:10:20;;;;;;;12.52;6.45;;;6.50;1.00;;;;;;4971961;28;20264;-78
2021/03/23 01:12:46;;;;;;;9.88;6.15;;;6.40;1.00;;;;;;4964720;28;20243;-78
2021/03/23 01:15:15;;;;;;;12.18;6.35;;;6.40;1.00;;;;;;4986107;28;20232;-77
2021/03/23 01:17:41;;;;;;;8.27;6.15;;;6.30;1.00;;;;;;4986798;28;20284;-77
2021/03/23 01:20:10;;;;;;;8.40;5.57;;;6.40;1.00;;;;;;4984339;28;20248;-78
2021/03/23 01:22:37;;;;;;;6.22;5.45;;;6.40;1.00;;;;;;4984687;28;20216;-76
2021/03/23 01:25:05;;;;;;;8.18;5.53;;;6.30;1.00;;;;;;4989973;28;20228;-77
2021/03/23 01:27:32;;;;;;;7.50;5.85;;;6.40;1.00;;;;;;4977404;28;20228;-77
2021/03/23 01:29:58;;;;;;;7.70;4.95;;;6.40;1.00;;;;;;4984707;28;20225;-76
2021/03/23 01:32:24;;;;;;;7.25;5.03;;;6.40;1.00;;;;;;4982604;28;20311;-77
2021/03/23 01:34:50;;;;;;;6.55;5.53;;;6.40;1.00;;;;;;4986274;28;20258;-77
2021/03/23 01:37:17;;;;;;;8.27;6.25;;;6.40;1.00;;;;;;4977163;28;20232;-77
2021/03/23 01:39:44;;;;;;;7.43;5.20;;;6.40;1.00;;;;;;4983142;28;20219;-78
2021/03/23 01:42:13;;;;;;;8.32;6.00;;;6.40;1.00;;;;;;4986758;28;20267;-77
2021/03/23 01:44:40;;;;;;;7.50;5.13;;;6.40;1.00;;;;;;4979235;28;20227;-77
2021/03/23 01:47:07;;;;;;;6.30;5.28;;;6.40;1.00;;;;;;4978695;28;20223;-76
2021/03/23 01:49:37;;;;;;;7.40;5.50;;;6.50;1.00;;;;;;4977679;28;20221;-76
2021/03/23 01:52:08;;;;;;;7.15;5.65;;;6.50;1.00;;;;;;4964934;28;20347;-78
2021/03/23 01:54:45;;;;;;;8.25;5.30;;;6.50;1.00;;;;;;4966601;28;20299;-77
2021/03/23 01:57:13;;;;;;;6.55;4.95;;;6.50;1.00;;;;;;4958514;28;20447;-79
2021/03/23 01:59:45;;;;;;;5.55;4.50;;;6.50;1.00;;;;;;4963433;28;21112;-79
2021/03/23 02:02:12;;;;;;;5.15;4.13;;;6.50;1.00;;;;;;4962915;28;20229;-78
2021/03/23 02:04:38;;;;;;;8.02;5.10;;;6.40;1.00;;;;;;4965007;28;20658;-77
2021/03/23 02:07:05;;;;;;;11.52;5.88;;;6.40;1.00;;;;;;4964374;28;20232;-77
2021/03/23 02:09:34;;;;;;;6.10;4.80;;;6.40;1.00;;;;;;4959501;28;20280;-76
2021/03/23 02:12:02;;;;;;;12.35;5.68;;;6.40;1.00;;;;;;4961726;28;20255;-77
2021/03/23 02:14:32;;;;;;;5.93;4.78;;;6.40;1.00;;;;;;4950349;28;20281;-78
2021/03/23 02:17:14;;;;;;;8.32;4.93;;;6.40;1.00;;;;;;4966793;28;20236;-79
2021/03/23 02:19:41;;;;;;;5.00;4.47;;;6.40;1.00;;;;;;4959174;28;20949;-77
2021/03/23 02:22:13;;;;;;;7.15;5.63;;;6.40;1.00;;;;;;4965598;28;20783;-78
2021/03/23 02:24:39;;;;;;;7.63;5.10;;;6.30;1.00;;;;;;4964567;28;20302;-79
2021/03/23 02:27:06;;;;;;;9.45;5.93;;;6.30;1.00;;;;;;4962444;28;20319;-78
2021/03/23 02:29:32;;;;;;;8.20;6.30;;;6.30;1.00;;;;;;4968950;28;21155;-79
2021/03/23 02:32:00;;;;;;;8.90;7.07;;;6.30;1.00;;;;;;4966853;28;20319;-80
2021/03/23 02:34:26;;;;;;;11.50;7.80;;;6.30;1.00;;;;;;4967914;28;21380;-78
2021/03/23 02:36:53;;;;;;;12.25;8.68;;;6.30;1.00;;;;;;4965219;28;20307;-77
2021/03/23 02:39:23;;;;;;;12.70;8.65;;;6.30;1.00;;;;;;4967668;28;20227;-77
2021/03/23 02:41:49;;;;;;;15.40;10.40;;;6.30;1.00;;;;;;4969300;28;20248;-78
2021/03/23 02:44:15;;;;;;;11.93;8.82;;;6.30;1.00;;;;;;4967206;28;20702;-79
2021/03/23 02:46:42;;;;;;;13.60;10.65;;;6.30;1.00;;;;;;4966382;28;20693;-77
2021/03/23 02:49:09;;;;;;;12.05;8.65;;;6.30;1.00;;;;;;4963155;28;20277;-78
2021/03/23 02:51:36;;;;;;;11.65;9.63;;;6.30;1.00;;;;;;4946773;28;20247;-79
2021/03/23 02:54:06;;;;;;;12.07;9.35;;;6.30;1.00;;;;;;4965735;28;20727;-79
2021/03/23 02:56:33;;;;;;;10.80;8.30;;;6.30;1.00;;;;;;4968527;28;20228;-78
2021/03/23 02:59:00;;;;;;;11.77;8.40;;;6.20;1.00;;;;;;4967108;28;20253;-78
2021/03/23 03:01:27;;;;;;;11.00;9.25;;;6.20;1.00;;;;;;4969577;28;20308;-78
2021/03/23 03:03:53;;;;;;;11.32;9.20;;;6.20;1.00;;;;;;4987370;28;20614;-77
2021/03/23 03:06:19;;;;;;;10.90;9.35;;;6.20;1.00;;;;;;4991074;28;20220;-77
2021/03/23 03:08:45;;;;;;;11.35;9.55;;;6.20;1.00;;;;;;4978985;28;20291;-78
2021/03/23 03:11:12;;;;;;;13.00;9.05;;;6.10;1.00;;;;;;4958825;28;20343;-78
2021/03/23 03:13:41;;;;;;;15.98;9.00;;;6.10;1.00;;;;;;4959811;28;20266;-78
2021/03/23 03:16:07;;;;;;;13.68;10.07;;;6.10;1.00;;;;;;4962675;28;20224;-77
2021/03/23 03:18:33;;;;;;;13.32;10.05;;;6.10;1.00;;;;;;4961306;28;20368;-77
2021/03/23 03:21:01;;;;;;;13.65;9.85;;;6.10;1.00;;;;;;4972624;28;20272;-77
2021/03/23 03:23:28;;;;;;;10.45;9.00;;;6.10;1.00;;;;;;4980680;28;20241;-78
2021/03/23 03:25:54;;;;;;;14.02;9.77;;;6.10;1.00;;;;;;4962855;28;20227;-77
2021/03/23 03:28:21;;;;;;;12.85;10.52;;;6.10;1.00;;;;;;4971552;28;20228;-78
2021/03/23 03:30:48;;;;;;;15.90;10.50;;;6.10;1.00;;;;;;4972974;28;20238;-79
2021/03/23 03:33:17;;;;;;;13.13;9.93;;;6.10;1.00;;;;;;4964477;28;20263;-80
2021/03/23 03:35:45;;;;;;;10.65;9.45;;;6.20;1.00;;;;;;4968520;28;20224;-81
2021/03/23 03:38:11;;;;;;;12.43;10.15;;;6.20;1.00;;;;;;4969185;28;20232;-80
2021/03/23 03:40:40;;;;;;;13.60;10.27;;;6.20;1.00;;;;;;4960834;28;20252;-78
2021/03/23 03:43:08;;;;;;;13.88;9.95;;;6.20;1.00;;;;;;4980842;28;20299;-78
2021/03/23 03:45:35;;;;;;;11.30;10.10;;;6.20;1.00;;;;;;4955649;28;20228;-79
2021/03/23 03:48:06;;;;;;;13.13;8.43;;;6.20;1.00;;;;;;4964775;28;21258;-79
2021/03/23 03:50:32;;;;;;;9.27;7.55;;;6.20;1.00;;;;;;4967026;28;20244;-79
2021/03/23 03:52:58;;;;;;;11.90;8.00;;;6.20;1.00;;;;;;4970547;28;21167;-80
2021/03/23 03:55:27;;;;;;;9.70;8.20;;;6.20;1.00;;;;;;4966665;28;20226;-78
2021/03/23 03:57:54;;;;;;;11.45;8.38;;;6.20;1.00;;;;;;4963674;28;20236;-79
2021/03/23 04:00:22;;;;;;;10.60;7.68;;;6.10;1.00;;;;;;4963799;28;20251;-79
2021/03/23 04:02:49;;;;;;;11.05;7.75;;;6.10;1.00;;;;;;4965490;28;20251;-78
2021/03/23 04:05:19;;;;;;;11.85;8.00;;;6.10;1.00;;;;;;4966227;28;20228;-78
2021/03/23 04:07:45;;;;;;;7.68;6.75;;;6.10;1.00;;;;;;4965981;28;20686;-79
2021/03/23 04:10:12;;;;;;;9.50;5.70;;;6.10;1.00;;;;;;4965834;28;20328;-79
2021/03/23 04:12:38;;;;;;;10.65;6.22;;;6.00;1.00;;;;;;4966373;28;20224;-79
2021/03/23 04:15:06;;;;;;;6.75;6.05;;;6.10;1.00;;;;;;4964739;28;21319;-79
2021/03/23 04:17:32;;;;;;;10.70;7.03;;;6.00;1.00;;;;;;4963509;28;20746;-79
2021/03/23 04:19:58;;;;;;;8.38;6.30;;;6.00;1.00;;;;;;4950521;28;20211;-79
2021/03/23 04:22:25;;;;;;;9.65;6.60;;;6.00;1.00;;;;;;4971945;28;20232;-78
2021/03/23 04:24:52;;;;;;;12.48;7.53;;;5.90;1.00;;;;;;4963595;28;20224;-78
2021/03/23 04:27:18;;;;;;;8.40;6.60;;;5.90;1.00;;;;;;4947746;28;20739;-78
2021/03/23 04:29:44;;;;;;;10.00;7.60;;;5.90;1.00;;;;;;4947961;28;20232;-77
2021/03/23 04:32:10;;;;;;;7.68;6.93;;;5.90;1.00;;;;;;4968779;28;20302;-78
2021/03/23 04:34:37;;;;;;;7.03;6.32;;;5.90;1.00;;;;;;4973356;28;20263;-78
2021/03/23 04:37:04;;;;;;;8.80;6.70;;;5.90;1.00;;;;;;4967069;28;20221;-78
2021/03/23 04:39:31;;;;;;;7.00;6.10;;;5.90;1.00;;;;;;4966751;28;20315;-78
2021/03/23 04:41:57;;;;;;;7.65;6.30;;;5.80;1.00;;;;;;4965666;28;20279;-77
2021/03/23 04:44:23;;;;;;;6.20;5.57;;;5.90;1.00;;;;;;4951651;28;20235;-77
2021/03/23 04:46:50;;;;;;;10.05;5.85;;;5.90;1.00;;;;;;4956688;28;20295;-78
2021/03/23 04:49:16;;;;;;;8.65;6.68;;;5.90;1.00;;;;;;4976623;28;20310;-78
2021/03/23 04:51:44;;;;;;;7.40;6.60;;;5.90;1.00;;;;;;4971949;28;20237;-79
2021/03/23 04:54:10;;;;;;;5.57;5.03;;;5.90;1.00;;;;;;4971981;28;20775;-78
2021/03/23 04:56:39;;;;;;;7.10;5.15;;;5.90;1.00;;;;;;4976513;28;20219;-78
2021/03/23 04:59:06;;;;;;;6.60;4.95;;;5.90;1.00;;;;;;4973976;28;20284;-77
2021/03/23 05:01:33;;;;;;;7.20;5.45;;;5.90;1.00;;;;;;4951186;28;20727;-79
2021/03/23 05:04:03;;;;;;;5.60;4.38;;;6.00;1.00;;;;;;4985246;28;20526;-76
2021/03/23 05:06:30;;;;;;;6.45;5.85;;;5.90;1.00;;;;;;4967205;28;20350;-79
2021/03/23 05:08:56;;;;;;;3.90;3.50;;;6.00;1.00;;;;;;4968960;28;20233;-78
2021/03/23 05:11:26;;;;;;;7.68;4.10;;;5.90;1.00;;;;;;4971681;28;20574;-77
2021/03/23 05:13:53;;;;;;;4.75;3.53;;;5.90;1.00;;;;;;4987030;28;20362;-76
2021/03/23 05:16:20;;;;;;;3.63;3.15;;;5.90;1.00;;;;;;4973310;28;20228;-78
2021/03/23 05:18:48;;;;;;;8.07;3.70;;;5.90;1.00;;;;;;4969668;28;20229;-79
2021/03/23 05:21:14;;;;;;;6.57;5.10;;;5.90;1.00;;;;;;4949297;28;21128;-78
2021/03/23 05:23:40;;;;;;;6.10;4.53;;;5.90;1.00;;;;;;4969127;28;20793;-78
2021/03/23 05:26:07;;;;;;;5.20;4.32;;;5.90;1.00;;;;;;4975172;28;20330;-76
2021/03/23 05:28:34;;;;;;;5.47;4.57;;;5.90;1.00;;;;;;4951497;28;20259;-79
2021/03/23 05:31:02;;;;;;;6.03;3.53;;;5.80;1.00;;;;;;4967374;28;20251;-77
2021/03/23 05:33:29;;;;;;;7.18;3.72;;;5.80;1.00;;;;;;4958461;28;20224;-79
2021/03/23 05:35:57;;;;;;;6.60;3.97;;;5.90;1.00;;;;;;4954363;28;21371;-79
2021/03/23 05:38:24;;;;;;;7.25;4.18;;;5.80;1.00;;;;;;4965695;28;20224;-79
2021/03/23 05:40:55;;;;;;;5.53;4.22;;;5.90;1.00;;;;;;4968342;28;20239;-79
2021/03/23 05:43:41;;;;;;;5.85;5.15;;;5.90;1.00;;;;;;4968549;28;20224;-77
2021/03/23 05:46:23;;;;;;;6.72;4.88;;;5.90;1.00;;;;;;4968803;28;20690;-79
2021/03/23 05:49:01;;;;;;;6.90;5.70;;;5.90;1.00;;;;;;4970276;28;20216;-79
2021/03/23 05:51:32;;;;;;;8.38;6.38;;;6.00;1.00;;;;;;4967764;28;20239;-77
2021/03/23 05:54:05;;;;;;;6.97;6.28;;;6.00;1.00;;;;;;4971404;28;20259;-78
2021/03/23 05:56:36;;;;;;;7.55;6.07;;;6.10;1.00;;;;;;4967054;28;20232;-77
2021/03/23 05:59:17;;;;;;;7.22;6.32;;;6.10;1.00;;;;;;4966091;28;20232;-78
2021/03/23 06:01:49;;;;;;;7.50;6.57;;;6.20;1.00;;;;;;4967872;28;20283;-78
2021/03/23 06:04:26;;;;;;;8.98;6.35;;;6.20;1.00;;;;;;4966377;28;20224;-78
2021/03/23 06:06:59;;;;;;;7.45;6.72;;;6.20;1.00;;;;;;4966893;28;20731;-77
2021/03/23 06:09:31;;;;;;;8.23;6.75;;;6.20;1.00;;;;;;4970138;28;20311;-78
2021/03/23 06:12:11;;;;;;;7.82;5.80;;;6.20;1.00;;;;;;4971557;28;20260;-79
2021/03/23 06:14:43;;;;;;;10.40;6.20;;;6.30;1.00;;;;;;4974191;28;20362;-79
2021/03/23 06:17:19;;;;;;;7.20;6.05;;;6.20;1.00;;;;;;4975516;28;20469;-79
2021/03/23 06:20:02;;;;;;;8.20;6.25;;;6.30;1.00;;;;;;4957542;28;20243;-79
2021/03/23 06:22:38;;;;;;;8.20;7.20;;;6.30;1.00;;;;;;4975797;28;20327;-80
2021/03/23 06:25:16;;;;;;;6.80;5.05;;;6.40;1.00;;;;;;4987025;28;20224;-79
2021/03/23 06:27:51;;;;;;;12.07;6.00;;;6.40;1.00;;;;;;4982722;28;20736;-79
2021/03/23 06:30:45;;;;;;;7.13;5.57;;;6.50;1.00;;;;;;4979026;28;20403;-79
2021/03/23 06:33:15;;;;;;;9.45;5.50;;;6.50;1.00;;;;;;4958853;28;20363;-79
2021/03/23 06:35:44;;;;;;;8.30;6.63;;;6.60;1.00;;;;;;4978015;28;20220;-78
2021/03/23 06:38:24;;;;;;;7.72;5.40;;;6.70;1.00;;;;;;4966516;28;20335;-77
2021/03/23 06:41:19;;;;;;;10.27;6.00;;;6.70;1.00;;;;;;4969659;28;20251;-79
2021/03/23 06:43:47;;;;;;;8.25;6.10;;;6.70;1.00;;;;;;4991614;28;20244;-80
2021/03/23 06:46:39;;;;;;;8.82;5.28;;;6.80;1.00;;;;;;4986514;28;20228;-79
2021/03/23 06:49:26;;;;;;;7.53;5.75;;;6.80;1.00;;;;;;4967746;28;20231;-81
2021/03/23 06:52:05;;;;;;;8.77;7.25;;;6.80;1.00;;;;;;4972887;28;20231;-77
2021/03/23 06:54:34;;;;;;;9.85;7.68;;;6.70;1.00;;;;;;4964547;28;20228;-77
2021/03/23 06:57:02;;;;;;;5.85;4.78;;;6.70;1.00;;;;;;4963994;28;20235;-77
2021/03/23 06:59:30;;;;;;;7.30;5.55;;;6.70;1.00;;;;;;4949715;28;20325;-76
2021/03/23 07:02:01;;;;;;;8.93;5.07;;;6.70;1.00;;;;;;4964964;28;20616;-76
2021/03/23 07:04:32;;;;;;;9.05;7.03;;;6.60;1.00;;;;;;4967127;28;20224;-76
2021/03/23 07:07:12;;;;;;;7.00;5.50;;;6.50;1.00;;;;;;4976887;28;20228;-76
2021/03/23 07:09:51;;;;;;;6.63;4.95;;;6.50;1.00;;;;;;4986114;28;20231;-77
2021/03/23 07:12:18;;;;;;;7.28;6.07;;;6.40;1.00;;;;;;4990087;28;20226;-77
2021/03/23 07:14:46;;;;;;;7.70;6.43;;;6.50;1.00;;;;;;4984043;28;20220;-77
2021/03/23 07:17:26;;;;;;;8.40;5.57;;;6.50;1.00;;;;;;4989786;28;20315;-78
2021/03/23 07:19:57;;;;;;;9.95;5.72;;;6.50;1.00;;;;;;4986973;28;20231;-78
2021/03/23 07:22:34;;;;;;;6.97;5.18;;;6.50;1.00;;;;;;4988141;28;20247;-76
2021/03/23 07:25:02;;;;;;;6.07;5.10;;;6.50;1.00;;;;;;4961236;28;20215;-77
2021/03/23 07:27:30;;;;;;;8.07;5.13;;;6.50;1.00;;;;;;4978177;28;20252;-77
2021/03/23 07:30:23;;;;;;;7.80;5.40;;;6.50;1.00;;;;;;4982195;28;20231;-79
2021/03/23 07:32:53;;;;;;;8.77;5.05;;;6.50;1.00;;;;;;4976085;28;20232;-79
2021/03/23 07:35:25;;;;;;;7.25;5.00;;;6.50;1.00;;;;;;4974220;28;20251;-79
2021/03/23 07:37:58;;;;;;;7.22;5.15;;;6.50;1.00;;;;;;4970197;28;20235;-77
2021/03/23 07:40:31;;;;;;;5.97;5.25;;;6.50;1.00;;;;;;4974705;28;20822;-76
2021/03/23 07:43:43;;;;;;;6.65;4.05;;;6.60;1.00;;;;;;4971417;28;20282;-78
2021/03/23 07:46:23;;;;;;;12.32;4.93;;;6.50;1.00;;;;;;4934375;28;20209;-78
2021/03/23 07:49:02;;;;;;;6.72;4.57;;;6.50;1.00;;;;;;4926874;29;20225;-79
2021/03/23 07:51:33;;;;;;;8.45;4.68;;;6.50;1.00;;;;;;4959158;28;20281;-80
2021/03/23 07:54:19;;;;;;;7.03;5.78;;;6.60;1.00;;;;;;4976988;28;20248;-78
2021/03/23 07:57:10;;;;;;;6.82;5.22;;;6.70;1.00;;;;;;4968827;28;20232;-79
2021/03/23 08:00:06;;;;;;;7.28;5.45;;;6.80;1.00;;;;;;4967499;28;20228;-78
2021/03/23 08:02:51;;;;;;;6.35;5.40;;;7.00;1.00;;;;;;4969169;28;20239;-80
2021/03/23 08:05:24;;;;;;;6.82;5.40;;;7.10;1.00;;;;;;4973982;28;20236;-80
2021/03/23 08:07:56;;;;;;;7.32;6.00;;;7.20;1.00;;;;;;4975186;28;20583;-78
2021/03/23 08:10:34;;;;;;;6.95;6.00;;;7.30;1.00;;;;;;4979628;28;20239;-80
2021/03/23 08:13:27;;;;;;;7.88;5.40;;;7.40;1.00;;;;;;4976823;28;20244;-78
2021/03/23 08:16:12;;;;;;;8.95;5.65;;;7.40;1.00;;;;;;4983927;28;20204;-76
2021/03/23 08:19:04;;;;;;;5.93;4.28;;;7.40;1.00;;;;;;4981726;28;20238;-77
2021/03/23 08:21:57;;;;;;;5.00;3.53;;;7.40;1.00;;;;;;4987499;28;20232;-77
2021/03/23 08:24:42;;;;;;;6.00;4.50;;;7.30;1.00;;;;;;4990076;28;20236;-77
2021/03/23 08:27:24;;;;;;;6.30;4.85;;;7.30;1.00;;;;;;4996009;28;21273;-75
2021/03/23 08:30:02;;;;;;;9.02;6.68;;;7.30;1.00;;;;;;4977902;28;20228;-79
2021/03/23 08:32:37;;;;;;;5.35;4.72;;;7.30;1.00;;;;;;4992337;28;20243;-79
2021/03/23 08:35:31;;;;;;;7.65;5.28;;;7.30;1.00;;;;;;4987136;28;20223;-78
2021/03/23 08:38:13;;;;;;;9.90;6.90;;;7.30;1.00;;;;;;4986155;28;20232;-77
2021/03/23 08:40:47;;;;;;;5.45;4.95;;;7.30;1.00;;;;;;4985674;28;20283;-78
2021/03/23 08:43:18;;;;;;;5.82;4.95;;;7.40;1.00;;;;;;4982940;28;20295;-77
2021/03/23 08:45:48;;;;;;;6.45;5.18;;;7.40;1.00;;;;;;4961515;28;20240;-78
2021/03/23 08:48:27;;;;;;;5.95;4.30;;;7.40;1.00;;;;;;4979294;28;20228;-78
2021/03/23 08:50:59;;;;;;;5.65;3.78;;;7.40;1.00;;;;;;4992407;28;21751;-77
2021/03/23 08:53:42;;;;;;;5.40;4.25;;;7.40;1.00;;;;;;4979915;28;20259;-77
2021/03/23 08:56:10;;;;;;;16.70;9.80;;;7.30;1.00;;;;;;4978608;28;23574;-77
2021/03/23 08:58:48;;;;;;;13.95;10.20;;;7.30;1.00;;;;;;4980133;28;20233;-78
2021/03/23 09:01:39;;;;;;;6.43;5.10;;;7.30;1.00;;;;;;4977178;28;20235;-77
2021/03/23 09:04:27;;;;;;;10.52;5.53;;;7.30;1.00;;;;;;4958165;28;20225;-77
2021/03/23 09:06:55;;;;;;;9.07;5.75;;;7.40;1.00;;;;;;4972948;28;20260;-80
2021/03/23 09:09:34;;;;;;;6.93;5.10;;;7.50;1.00;;;;;;4973858;28;20247;-78
2021/03/23 09:12:06;;;;;;;12.35;6.30;;;7.50;1.00;;;;;;4952488;28;20242;-79
2021/03/23 09:14:53;;;;;;;6.20;4.72;;;7.50;1.00;;;;;;4950281;28;20299;-78
2021/03/23 09:17:36;;;;;;;9.63;4.95;;;7.50;1.00;;;;;;4970020;28;20253;-79
2021/03/23 09:20:41;;;;;;;5.28;4.25;;;7.60;1.00;;;;;;4958025;28;20708;-78
2021/03/23 09:23:49;;;;;;;10.15;4.75;;;7.60;1.00;;;;;;4969553;28;20246;-78
2021/03/23 09:26:44;;;;;;;10.45;4.93;;;7.60;1.00;;;;;;4959554;28;20762;-78
2021/03/23 09:29:51;;;;;;;5.28;4.70;;;7.70;1.00;;;;;;4951578;28;20247;-78
2021/03/23 09:32:21;;;;;;;6.22;4.38;;;7.80;1.00;;;;;;4965197;28;20290;-79
2021/03/23 09:35:09;;;;;;;9.43;5.00;;;7.80;1.00;;;;;;4972912;28;20234;-78
2021/03/23 09:37:39;;;;;;;7.63;3.90;;;7.90;1.00;;;;;;4968663;28;20232;-79
2021/03/23 09:40:32;;;;;;;5.97;4.28;;;7.90;1.00;;;;;;4963007;28;20250;-78
2021/03/23 09:43:22;;;;;;;7.20;5.10;;;7.90;1.00;;;;;;4965186;28;20200;-78
2021/03/23 09:46:02;;;;;;;12.85;5.28;;;7.90;1.00;;;;;;4967144;28;20256;-78
2021/03/23 09:48:56;;;;;;;7.90;5.50;;;7.90;1.00;;;;;;4965538;28;20303;-79
2021/03/23 09:51:43;;;;;;;5.80;4.70;;;7.90;1.00;;;;;;4963245;28;20260;-79
2021/03/23 09:54:15;;;;;;;5.57;4.70;;;7.90;1.00;;;;;;4961538;28;20223;-78
2021/03/23 09:56:47;;;;;;;6.20;4.90;;;7.80;1.00;;;;;;4949377;28;21283;-80
2021/03/23 09:59:16;;;;;;;8.43;4.78;;;7.90;1.00;;;;;;4964921;28;20224;-78
2021/03/23 10:01:56;;;;;;;5.60;4.82;;;8.00;1.00;;;;;;4948671;28;20242;-77
2021/03/23 10:04:33;;;;;;;11.93;5.57;;;8.00;1.00;;;;;;4966445;28;20232;-77
2021/03/23 10:07:00;;;;;;;8.05;4.45;;;8.10;1.00;;;;;;4980284;28;20471;-78
2021/03/23 10:09:29;;;;;;;12.25;5.28;;;8.20;1.00;;;;;;4963446;28;20216;-76
2021/03/23 10:11:57;;;;;;;6.47;5.25;;;8.30;1.00;;;;;;4957661;28;21432;-77
2021/03/23 10:14:38;;;;;;;10.40;5.88;;;8.30;1.00;;;;;;4960653;28;20236;-76
2021/03/23 10:17:12;;;;;;;7.43;5.07;;;8.50;1.00;;;;;;4962503;28;20275;-76
2021/03/23 10:19:41;;;;;;;6.60;5.47;;;8.60;1.00;;;;;;4969520;28;20311;-77
2021/03/23 10:22:10;;;;;;;8.32;5.50;;;8.60;1.00;;;;;;4964244;28;20321;-77
2021/03/23 10:24:39;;;;;;;6.03;5.32;;;8.70;1.00;;;;;;4936807;28;20236;-77
2021/03/23 10:27:14;;;;;;;6.30;4.68;;;8.80;1.00;;;;;;4952041;28;20335;-77
2021/03/23 10:29:54;;;;;;;7.45;4.60;;;9.00;1.00;;;;;;4954435;28;20271;-77
2021/03/23 10:32:33;;;;;;;6.03;4.60;;;9.00;1.00;;;;;;4958516;28;20235;-75
2021/03/23 10:35:06;;;;;;;9.23;4.95;;;9.10;1.00;;;;;;4941831;28;20391;-77
2021/03/23 10:37:33;;;;;;;10.10;5.78;;;9.20;1.00;;;;;;4955140;28;20227;-76
2021/03/23 10:39:59;;;;;;;12.05;6.18;;;9.30;1.00;;;;;;4955410;28;20264;-78
2021/03/23 10:42:28;;;;;;;5.38;3.80;;;9.40;1.00;;;;;;4956429;28;20319;-77
2021/03/23 10:45:13;;;;;;;4.75;3.75;;;9.40;1.00;;;;;;4962367;28;21112;-78
2021/03/23 10:47:44;;;;;;;9.50;4.47;;;9.60;1.00;;;;;;4952039;28;20229;-77
2021/03/23 10:50:17;;;;;;;5.18;3.22;;;9.70;1.00;;;;;;4955023;28;20716;-77
2021/03/23 10:52:43;;;;;;;6.60;3.80;;;9.70;1.00;;;;;;4953209;28;20244;-78
2021/03/23 10:55:22;;;;;;;6.05;4.10;;;9.90;1.00;;;;;;4955357;28;20246;-76
2021/03/23 10:57:49;;;;;;;6.85;4.93;;;10.00;1.00;;;;;;4964920;28;20708;-77
2021/03/23 11:00:21;;;;;;;6.28;3.55;;;10.00;1.00;;;;;;4962929;28;20241;-76
2021/03/23 11:02:48;;;;;;;6.75;3.13;;;10.10;1.00;;;;;;4956772;28;20371;-75
2021/03/23 11:05:18;;;;;;;5.28;3.38;;;10.20;1.00;;;;;;4966358;28;20225;-78
2021/03/23 11:07:59;;;;;;;4.30;2.80;;;10.30;1.00;;;;;;4947984;28;20287;-75
2021/03/23 11:10:28;;;;;;;4.90;3.10;;;10.30;1.00;;;;;;4955526;28;20228;-77
2021/03/23 11:12:55;;;;;;;7.25;2.80;;;10.30;1.00;;;;;;4954743;28;20241;-77
2021/03/23 11:15:22;;;;;;;5.20;3.05;;;10.40;1.00;;;;;;4948812;28;20232;-76
2021/03/23 11:17:50;;;;;;;2.90;2.50;;;10.60;1.00;;;;;;4955352;28;20231;-77
2021/03/23 11:20:26;;;;;;;5.45;2.58;;;10.70;1.00;;;;;;4941240;28;20228;-77
2021/03/23 11:22:55;;;;;;;4.57;2.55;;;10.90;1.00;;;;;;4958819;28;21174;-75
2021/03/23 11:25:23;;;;;;;2.97;2.50;;;10.90;1.00;;;;;;4963608;28;20220;-77
2021/03/23 11:27:51;;;;;;;5.45;2.30;;;10.90;1.00;;;;;;4955936;28;20466;-77
2021/03/23 11:30:19;;;;;;;2.83;2.55;;;10.80;1.00;;;;;;4957576;28;20224;-76
2021/03/23 11:32:46;;;;;;;2.60;2.17;;;10.80;1.00;;;;;;4956315;28;20291;-77
2021/03/23 11:35:13;;;;;;;4.97;3.20;;;10.90;1.00;;;;;;4950192;28;20745;-77
2021/03/23 11:37:39;;;;;;;3.22;2.67;;;11.00;1.00;;;;;;4953008;28;21662;-77
2021/03/23 11:40:08;;;;;;;5.32;2.60;;;11.10;1.00;;;;;;4954296;28;20224;-76
2021/03/23 11:42:37;;;;;;;2.70;2.30;;;11.10;1.00;;;;;;4932931;28;20224;-73
2021/03/23 11:45:07;;;;;;;3.10;2.30;;;11.30;1.00;;;;;;4947873;28;20539;-75
2021/03/23 11:47:42;;;;;;;2.93;2.50;;;11.50;1.00;;;;;;4961952;28;20467;-74
2021/03/23 11:50:12;;;;;;;3.70;2.33;;;11.70;1.00;;;;;;4938388;28;21862;-73
2021/03/23 11:52:39;;;;;;;5.83;3.80;;;11.80;1.00;;;;;;4949100;28;20499;-72
2021/03/23 11:55:09;;;;;;;7.43;3.30;;;11.80;1.00;;;;;;4957722;28;21010;-72
2021/03/23 11:57:36;;;;;;;4.00;2.90;;;11.90;1.00;;;;;;4947726;28;20471;-72
2021/03/23 12:00:03;;;;;;;3.83;2.80;;;11.90;1.00;;;;;;4954146;28;20881;-73
2021/03/23 12:02:30;;;;;;;5.80;2.80;;;11.90;1.00;;;;;;4958246;28;21152;-72
2021/03/23 12:04:57;;;;;;;7.17;4.17;;;11.90;1.00;;;;;;4949065;28;24245;-73
2021/03/23 12:07:38;;;;;;;4.10;3.70;;;11.80;1.00;;;;;;4947396;28;20467;-73
2021/03/23 12:10:12;;;;;;;4.63;4.03;;;11.60;1.00;;;;;;4952407;28;20456;-73
2021/03/23 12:12:43;;;;;;;7.20;3.50;;;11.40;1.00;;;;;;4951050;28;20487;-73
2021/03/23 12:15:15;;;;;;;9.80;5.03;;;11.30;1.00;;;;;;4951293;28;21701;-73
2021/03/23 12:17:48;;;;;;;5.23;3.90;;;11.00;1.00;;;;;;4952167;28;20919;-72
2021/03/23 12:20:19;;;;;;;3.63;3.33;;;10.80;1.00;;;;;;4951382;28;21236;-74
2021/03/23 12:22:46;;;;;;;5.20;3.60;;;10.70;1.00;;;;;;4951983;28;20286;-75
2021/03/23 12:25:14;;;;;;;6.50;3.80;;;10.50;1.00;;;;;;4946762;28;21276;-74
2021/03/23 12:27:40;;;;;;;3.13;2.30;;;10.30;1.00;;;;;;4948334;28;20641;-75
2021/03/23 12:30:09;;;;;;;4.33;3.73;;;10.10;1.00;;;;;;4952707;28;20490;-74
2021/03/23 12:32:36;;;;;;;3.20;2.70;;;10.00;1.00;;;;;;4947842;28;20485;-73
2021/03/23 12:35:08;;;;;;;3.78;2.80;;;10.00;1.00;;;;;;4933947;28;20240;-74
2021/03/23 12:37:36;;;;;;;8.07;4.20;;;10.00;1.00;;;;;;4953490;28;20234;-73
2021/03/23 12:40:04;;;;;;;4.03;3.15;;;10.00;1.00;;;;;;4947550;28;20234;-73
2021/03/23 12:42:30;;;;;;;6.47;4.15;;;10.00;1.00;;;;;;4939457;28;20235;-72
2021/03/23 12:44:57;;;;;;;6.93;4.55;;;10.00;1.00;;;;;;4934668;28;20267;-72
2021/03/23 12:47:23;;;;;;;5.40;4.90;;;10.10;1.00;;;;;;4936397;28;20357;-73
2021/03/23 12:49:49;;;;;;;5.30;4.80;;;10.00;1.00;;;;;;4954359;28;20224;-73
2021/03/23 12:52:20;;;;;;;5.80;4.67;;;9.90;1.00;;;;;;4955108;28;20753;-73
2021/03/23 12:54:49;;;;;;;5.93;5.32;;;10.00;1.00;;;;;;4962324;28;20471;-73
2021/03/23 12:57:18;;;;;;;4.65;4.25;;;10.00;1.00;;;;;;4954048;28;20236;-74
2021/03/23 12:59:45;;;;;;;5.05;3.90;;;9.90;1.00;;;;;;4955968;28;20225;-73
2021/03/23 13:02:13;;;;;;;8.25;4.60;;;9.90;1.00;;;;;;4955933;28;20361;-73
2021/03/23 13:04:40;;;;;;;4.75;4.35;;;9.90;1.00;;;;;;4955589;28;20260;-73
2021/03/23 13:07:07;;;;;;;9.13;6.10;;;10.00;1.00;;;;;;4958531;28;20233;-74
2021/03/23 13:09:37;;;;;;;5.30;4.28;;;10.00;1.00;;;;;;4951970;28;20220;-75
2021/03/23 13:12:05;;;;;;;4.25;3.90;;;10.10;1.00;;;;;;4951528;28;20298;-74
2021/03/23 13:14:31;;;;;;;11.75;6.32;;;10.20;1.00;;;;;;4955413;28;20280;-74
2021/03/23 13:16:58;;;;;;;3.30;3.00;;;10.30;1.00;;;;;;4956716;28;21104;-74
2021/03/23 13:19:24;;;;;;;3.90;3.00;;;10.40;1.00;;;;;;4953975;28;20235;-74
2021/03/23 13:21:56;;;;;;;4.73;3.20;;;10.30;1.00;;;;;;4939655;28;20328;-73
2021/03/23 13:24:31;;;;;;;3.20;2.90;;;10.20;1.00;;;;;;4952935;28;20453;-75
2021/03/23 13:26:58;;;;;;;4.88;3.40;;;10.20;1.00;;;;;;4958027;28;21233;-73